createdAt,value
2019-02-08T00:00:05.607Z,84.95
2019-02-08T00:00:31.761Z,84.85
2019-02-08T00:00:57.901Z,85.04
2019-02-08T00:01:24.319Z,85.24
2019-02-08T00:01:50.509Z,85.04
2019-02-08T00:02:16.698Z,84.95
2019-02-08T00:02:43.233Z,85.14
2019-02-08T00:03:09.396Z,84.85
2019-02-08T00:03:35.543Z,84.95
2019-02-08T00:04:01.666Z,84.76
2019-02-08T00:04:27.867Z,85.33
2019-02-08T00:04:54.212Z,84.95
2019-02-08T00:05:20.403Z,84.85
2019-02-08T00:05:46.548Z,84.95
2019-02-08T00:06:12.683Z,84.95
2019-02-08T00:06:38.838Z,85.71
2019-02-08T00:07:04.982Z,85.61
2019-02-08T00:07:31.161Z,85.33
2019-02-08T00:07:57.344Z,85.42
2019-02-08T00:08:23.795Z,85.24
2019-02-08T00:08:49.976Z,85.8
2019-02-08T00:09:16.179Z,85.8
2019-02-08T00:09:42.942Z,85.61
2019-02-08T00:10:09.107Z,85.33
2019-02-08T00:10:35.478Z,85.42
2019-02-08T00:11:01.616Z,85.52
2019-02-08T00:11:27.741Z,85.61
2019-02-08T00:11:54.198Z,84.85
2019-02-08T00:12:20.362Z,84.95
2019-02-08T00:12:46.503Z,85.24
2019-02-08T00:13:12.893Z,85.61
2019-02-08T00:13:38.997Z,85.61
2019-02-08T00:14:05.448Z,85.8
2019-02-08T00:14:31.662Z,85.61
2019-02-08T00:14:57.773Z,85.8
2019-02-08T00:15:23.968Z,85.52
2019-02-08T00:15:50.097Z,85.42
2019-02-08T00:16:16.327Z,85.42
2019-02-08T00:16:42.474Z,85.52
2019-02-08T00:17:08.643Z,85.24
2019-02-08T00:17:34.839Z,85.8
2019-02-08T00:18:00.976Z,85.8
2019-02-08T00:18:27.109Z,85.99
2019-02-08T00:18:53.486Z,85.14
2019-02-08T00:19:19.643Z,85.71
2019-02-08T00:19:45.773Z,85.8
2019-02-08T00:20:12.036Z,85.04
2019-02-08T00:20:38.172Z,85.8
2019-02-08T00:21:04.360Z,85.9
2019-02-08T00:21:30.491Z,85.42
2019-02-08T00:21:56.685Z,85.52
2019-02-08T00:22:23.050Z,85.8
2019-02-08T00:22:49.217Z,85.9
2019-02-08T00:23:25.953Z,85.52
2019-02-08T00:23:42.602Z,85.99
2019-02-08T00:24:08.735Z,85.9
2019-02-08T00:24:35.085Z,85.9
2019-02-08T00:25:01.310Z,85.33
2019-02-08T00:25:27.506Z,85.24
2019-02-08T00:25:53.961Z,85.9
2019-02-08T00:26:20.120Z,85.9
2019-02-08T00:26:46.557Z,85.71
2019-02-08T00:27:12.732Z,85.9
2019-02-08T00:27:38.837Z,85.52
2019-02-08T00:28:05.171Z,85.9
2019-02-08T00:28:31.274Z,85.9
2019-02-08T00:28:57.412Z,85.9
2019-02-08T00:29:23.789Z,85.99
2019-02-08T00:29:49.953Z,85.71
2019-02-08T00:30:16.433Z,85.9
2019-02-08T00:30:42.655Z,85.8
2019-02-08T00:31:08.874Z,85.61
2019-02-08T00:31:35.081Z,85.8
2019-02-08T00:32:01.279Z,86.09
2019-02-08T00:32:27.461Z,85.8
2019-02-08T00:32:53.627Z,85.99
2019-02-08T00:33:19.759Z,85.9
2019-02-08T00:33:45.896Z,85.71
2019-02-08T00:34:12.060Z,85.52
2019-02-08T00:34:38.168Z,85.99
2019-02-08T00:35:04.582Z,85.61
2019-02-08T00:35:30.698Z,85.33
2019-02-08T00:35:57.007Z,85.42
2019-02-08T00:36:23.120Z,85.9
2019-02-08T00:36:49.270Z,85.9
2019-02-08T00:37:15.853Z,85.52
2019-02-08T00:37:41.982Z,85.61
2019-02-08T00:38:08.092Z,85.52
2019-02-08T00:38:34.616Z,85.71
2019-02-08T00:39:00.744Z,85.52
2019-02-08T00:39:27.069Z,85.71
2019-02-08T00:39:53.181Z,86.18
2019-02-08T00:40:19.309Z,85.71
2019-02-08T00:40:45.641Z,85.71
2019-02-08T00:41:11.748Z,85.99
2019-02-08T00:41:37.883Z,85.42
2019-02-08T00:42:04.029Z,85.33
2019-02-08T00:42:30.128Z,85.33
2019-02-08T00:42:56.557Z,85.99
2019-02-08T00:43:22.662Z,85.71
2019-02-08T00:43:48.769Z,85.52
2019-02-08T00:44:15.142Z,85.71
2019-02-08T00:44:41.253Z,86.18
2019-02-08T00:45:07.570Z,85.52
2019-02-08T00:45:33.907Z,85.71
2019-02-08T00:46:00.016Z,86.09
2019-02-08T00:46:26.315Z,85.9
2019-02-08T00:46:52.457Z,85.71
2019-02-08T00:47:18.565Z,85.9
2019-02-08T00:47:44.927Z,85.71
2019-02-08T00:48:11.035Z,86.18
2019-02-08T00:48:37.359Z,85.61
2019-02-08T00:49:03.453Z,85.99
2019-02-08T00:49:29.564Z,85.99
2019-02-08T00:49:56.030Z,86.38
2019-02-08T00:50:22.134Z,85.33
2019-02-08T00:50:48.237Z,85.8
2019-02-08T00:51:14.559Z,86.09
2019-02-08T00:51:40.664Z,85.52
2019-02-08T00:52:07.054Z,85.61
2019-02-08T00:52:33.159Z,85.9
2019-02-08T00:52:59.273Z,85.9
2019-02-08T00:53:25.655Z,85.9
2019-02-08T00:53:52.749Z,85.52
2019-02-08T00:54:18.857Z,85.52
2019-02-08T00:54:45.304Z,85.42
2019-02-08T00:55:11.432Z,86.38
2019-02-08T00:55:38.039Z,85.71
2019-02-08T00:56:04.137Z,86.47
2019-02-08T00:56:30.241Z,86.28
2019-02-08T00:56:56.612Z,85.71
2019-02-08T00:57:22.737Z,86.57
2019-02-08T00:57:48.860Z,85.71
2019-02-08T00:58:15.268Z,86.57
2019-02-08T00:58:41.369Z,85.61
2019-02-08T00:59:07.776Z,85.9
2019-02-08T00:59:33.878Z,86.38
2019-02-08T01:00:00.008Z,85.71
2019-02-08T01:00:26.443Z,86.18
2019-02-08T01:00:52.769Z,86.47
2019-02-08T01:01:19.148Z,85.99
2019-02-08T01:01:45.371Z,86.18
2019-02-08T01:02:11.506Z,85.33
2019-02-08T01:02:38.150Z,86.38
2019-02-08T01:03:04.270Z,86.57
2019-02-08T01:03:30.383Z,85.71
2019-02-08T01:03:56.739Z,85.52
2019-02-08T01:04:22.877Z,85.71
2019-02-08T01:04:49.232Z,85.99
2019-02-08T01:05:15.347Z,85.33
2019-02-08T01:05:41.439Z,85.52
2019-02-08T01:06:07.751Z,85.61
2019-02-08T01:06:33.854Z,86.47
2019-02-08T01:06:59.960Z,85.99
2019-02-08T01:07:26.590Z,85.71
2019-02-08T01:07:52.697Z,85.71
2019-02-08T01:08:19.076Z,85.95
2019-02-08T01:08:45.185Z,85.76
2019-02-08T01:09:11.299Z,85.86
2019-02-08T01:09:37.657Z,85.71
2019-02-08T01:10:03.758Z,86.18
2019-02-08T01:10:29.867Z,85.66
2019-02-08T01:10:56.293Z,86.28
2019-02-08T01:11:22.399Z,85.8
2019-02-08T01:11:48.706Z,85.86
2019-02-08T01:12:14.814Z,86.47
2019-02-08T01:12:40.914Z,86.33
2019-02-08T01:13:07.344Z,86.14
2019-02-08T01:13:33.745Z,86.33
2019-02-08T01:13:59.854Z,86.05
2019-02-08T01:14:26.128Z,86.52
2019-02-08T01:14:52.234Z,86.52
2019-02-08T01:15:18.521Z,86.52
2019-02-08T01:15:44.631Z,86.43
2019-02-08T01:16:10.737Z,86.61
2019-02-08T01:16:37.101Z,86.71
2019-02-08T01:17:03.207Z,86.52
2019-02-08T01:17:29.369Z,86.61
2019-02-08T01:17:55.614Z,86.61
2019-02-08T01:18:21.714Z,86.9
2019-02-08T01:18:48.049Z,87.09
2019-02-08T01:19:14.140Z,87.47
2019-02-08T01:19:40.248Z,87.09
2019-02-08T01:20:06.639Z,87.09
2019-02-08T01:20:32.767Z,87.09
2019-02-08T01:20:59.105Z,87.09
2019-02-08T01:21:25.198Z,87.09
2019-02-08T01:21:51.307Z,87.09
2019-02-08T01:22:17.579Z,86.99
2019-02-08T01:22:43.687Z,87.09
2019-02-08T01:23:09.854Z,86.9
2019-02-08T01:23:40.977Z,87.57
2019-02-08T01:24:06.111Z,87.38
2019-02-08T01:24:32.243Z,87.28
2019-02-08T01:24:58.343Z,87.85
2019-02-08T01:25:24.478Z,87.28
2019-02-08T01:25:50.589Z,87.28
2019-02-08T01:26:16.720Z,87.95
2019-02-08T01:26:42.830Z,87.76
2019-02-08T01:27:08.938Z,87.66
2019-02-08T01:27:35.040Z,87.76
2019-02-08T01:28:01.148Z,87.85
2019-02-08T01:28:27.265Z,87.85
2019-02-08T01:28:53.366Z,87.85
2019-02-08T01:29:19.540Z,87.66
2019-02-08T01:29:45.647Z,87.47
2019-02-08T01:30:11.746Z,87.57
2019-02-08T01:30:37.886Z,87.57
2019-02-08T01:31:03.988Z,87.85
2019-02-08T01:31:30.096Z,87.76
2019-02-08T01:31:56.194Z,87.85
2019-02-08T01:32:22.304Z,87.76
2019-02-08T01:32:48.405Z,87.66
2019-02-08T01:33:14.521Z,87.76
2019-02-08T01:33:40.615Z,87.38
2019-02-08T01:34:06.715Z,87.76
2019-02-08T01:34:32.825Z,87.76
2019-02-08T01:34:58.929Z,87.66
2019-02-08T01:35:25.097Z,88.33
2019-02-08T01:35:51.202Z,88.13
2019-02-08T01:36:17.313Z,88.33
2019-02-08T01:36:43.424Z,87.57
2019-02-08T01:37:09.553Z,87.57
2019-02-08T01:37:35.694Z,87.76
2019-02-08T01:38:01.802Z,87.76
2019-02-08T01:38:27.902Z,87.76
2019-02-08T01:38:54.010Z,87.76
2019-02-08T01:39:20.121Z,87.57
2019-02-08T01:39:46.226Z,87.57
2019-02-08T01:40:12.338Z,87.47
2019-02-08T01:40:38.431Z,87.76
2019-02-08T01:41:04.535Z,87.76
2019-02-08T01:41:30.644Z,87.66
2019-02-08T01:41:56.745Z,87.57
2019-02-08T01:42:22.855Z,87.76
2019-02-08T01:42:48.964Z,87.85
2019-02-08T01:43:15.068Z,87.85
2019-02-08T01:43:41.170Z,87.85
2019-02-08T01:44:07.307Z,87.95
2019-02-08T01:44:33.407Z,87.95
2019-02-08T01:44:59.513Z,87.76
2019-02-08T01:45:25.623Z,87.85
2019-02-08T01:45:51.749Z,87.66
2019-02-08T01:46:17.860Z,87.57
2019-02-08T01:46:43.971Z,87.85
2019-02-08T01:47:10.112Z,87.76
2019-02-08T01:47:36.214Z,87.57
2019-02-08T01:48:02.341Z,87.28
2019-02-08T01:48:28.455Z,87.76
2019-02-08T01:48:54.563Z,87.47
2019-02-08T01:49:20.674Z,87.66
2019-02-08T01:49:46.774Z,88.04
2019-02-08T01:50:12.881Z,88.04
2019-02-08T01:50:39.021Z,87.85
2019-02-08T01:51:05.157Z,87.95
2019-02-08T01:51:31.267Z,87.19
2019-02-08T01:51:57.371Z,87.28
2019-02-08T01:52:23.476Z,87.28
2019-02-08T01:52:49.577Z,87.47
2019-02-08T01:53:15.711Z,87.38
2019-02-08T01:53:48.291Z,87.38
2019-02-08T01:54:08.950Z,87.38
2019-02-08T01:54:35.049Z,87.38
2019-02-08T01:55:01.155Z,87.09
2019-02-08T01:55:27.302Z,87.38
2019-02-08T01:55:53.446Z,87.28
2019-02-08T01:56:19.600Z,87.19
2019-02-08T01:56:45.709Z,87.38
2019-02-08T01:57:11.809Z,87.47
2019-02-08T01:57:37.921Z,87.47
2019-02-08T01:58:04.085Z,87.38
2019-02-08T01:58:30.218Z,87.47
2019-02-08T01:58:56.323Z,87.47
2019-02-08T01:59:22.454Z,87.38
2019-02-08T01:59:48.581Z,87.38
2019-02-08T02:00:15.276Z,87.38
2019-02-08T02:00:41.388Z,87.28
2019-02-08T02:01:07.482Z,87.19
2019-02-08T02:01:33.591Z,87.38
2019-02-08T02:01:59.697Z,87.76
2019-02-08T02:02:25.796Z,87.57
2019-02-08T02:02:51.897Z,87.76
2019-02-08T02:03:18.009Z,87.47
2019-02-08T02:03:44.113Z,87.76
2019-02-08T02:04:10.223Z,87.47
2019-02-08T02:04:36.325Z,87.76
2019-02-08T02:05:02.432Z,87.57
2019-02-08T02:05:28.563Z,87.76
2019-02-08T02:05:54.664Z,87.76
2019-02-08T02:06:20.804Z,87.85
2019-02-08T02:06:46.933Z,87.66
2019-02-08T02:07:13.036Z,87.57
2019-02-08T02:07:39.175Z,87.95
2019-02-08T02:08:05.311Z,88.04
2019-02-08T02:08:31.416Z,87.95
2019-02-08T02:08:57.518Z,87.85
2019-02-08T02:09:23.619Z,87.09
2019-02-08T02:09:49.730Z,87.47
2019-02-08T02:10:15.827Z,87.76
2019-02-08T02:10:41.935Z,87.85
2019-02-08T02:11:08.043Z,87.85
2019-02-08T02:11:34.163Z,88.13
2019-02-08T02:12:00.262Z,87.85
2019-02-08T02:12:26.374Z,87.19
2019-02-08T02:12:52.540Z,87.09
2019-02-08T02:13:18.617Z,87.09
2019-02-08T02:13:44.743Z,87.09
2019-02-08T02:14:10.848Z,87.95
2019-02-08T02:14:36.957Z,87.85
2019-02-08T02:15:03.088Z,87.47
2019-02-08T02:15:29.190Z,87.23
2019-02-08T02:15:55.306Z,87.95
2019-02-08T02:16:21.431Z,87.19
2019-02-08T02:16:47.534Z,87.47
2019-02-08T02:17:13.637Z,87.09
2019-02-08T02:17:39.739Z,87.28
2019-02-08T02:18:05.842Z,87.28
2019-02-08T02:18:31.982Z,87.38
2019-02-08T02:18:58.090Z,87.38
2019-02-08T02:19:24.223Z,87.47
2019-02-08T02:19:50.358Z,86.99
2019-02-08T02:20:16.469Z,86.99
2019-02-08T02:20:42.569Z,86.99
2019-02-08T02:21:08.703Z,87.47
2019-02-08T02:21:34.840Z,87.09
2019-02-08T02:22:00.978Z,87.76
2019-02-08T02:22:27.077Z,87.85
2019-02-08T02:22:53.198Z,87.28
2019-02-08T02:23:19.324Z,87.57
2019-02-08T02:23:45.457Z,87.66
2019-02-08T02:24:12.558Z,87.76
2019-02-08T02:24:38.657Z,87.76
2019-02-08T02:25:04.760Z,87.47
2019-02-08T02:25:30.871Z,87.32
2019-02-08T02:25:56.974Z,87.38
2019-02-08T02:26:23.073Z,87.28
2019-02-08T02:26:49.199Z,87.47
2019-02-08T02:27:15.287Z,87.47
2019-02-08T02:27:41.400Z,87.42
2019-02-08T02:28:07.534Z,86.99
2019-02-08T02:28:33.671Z,86.9
2019-02-08T02:28:59.772Z,87.19
2019-02-08T02:29:25.881Z,86.9
2019-02-08T02:29:51.987Z,86.9
2019-02-08T02:30:18.154Z,87.38
2019-02-08T02:30:44.267Z,87.38
2019-02-08T02:31:10.395Z,86.9
2019-02-08T02:31:36.502Z,87.38
2019-02-08T02:32:02.630Z,87.09
2019-02-08T02:32:28.742Z,86.99
2019-02-08T02:32:54.878Z,87.28
2019-02-08T02:33:20.985Z,87.28
2019-02-08T02:33:47.121Z,87.28
2019-02-08T02:34:13.224Z,87.47
2019-02-08T02:34:39.334Z,86.8
2019-02-08T02:35:05.437Z,86.33
2019-02-08T02:35:31.541Z,86.61
2019-02-08T02:35:57.653Z,86.85
2019-02-08T02:36:23.779Z,86.52
2019-02-08T02:36:49.929Z,86.52
2019-02-08T02:37:16.039Z,86.52
2019-02-08T02:37:42.142Z,86.14
2019-02-08T02:38:08.275Z,85.57
2019-02-08T02:38:34.419Z,85.71
2019-02-08T02:39:00.546Z,85.38
2019-02-08T02:39:26.650Z,86.14
2019-02-08T02:39:52.791Z,86.52
2019-02-08T02:40:18.889Z,85.52
2019-02-08T02:40:45.029Z,85.86
2019-02-08T02:41:11.166Z,85.86
2019-02-08T02:41:37.282Z,86.33
2019-02-08T02:42:03.387Z,85.86
2019-02-08T02:42:29.501Z,85.86
2019-02-08T02:42:55.607Z,85.76
2019-02-08T02:43:21.776Z,85.86
2019-02-08T02:43:47.909Z,85.86
2019-02-08T02:44:14.010Z,85.76
2019-02-08T02:44:40.117Z,85.24
2019-02-08T02:45:06.221Z,85.8
2019-02-08T02:45:32.341Z,85.76
2019-02-08T02:45:58.466Z,85.86
2019-02-08T02:46:24.576Z,85.86
2019-02-08T02:46:50.681Z,85.66
2019-02-08T02:47:16.788Z,85.47
2019-02-08T02:47:42.889Z,85.38
2019-02-08T02:48:08.996Z,85.86
2019-02-08T02:48:35.133Z,85.86
2019-02-08T02:49:01.242Z,86.05
2019-02-08T02:49:27.370Z,85.76
2019-02-08T02:49:53.509Z,85.76
2019-02-08T02:50:19.644Z,85.76
2019-02-08T02:50:45.708Z,85.76
2019-02-08T02:51:11.813Z,85.66
2019-02-08T02:51:37.925Z,85.8
2019-02-08T02:52:04.037Z,85.99
2019-02-08T02:52:30.167Z,85.86
2019-02-08T02:52:56.326Z,85.86
2019-02-08T02:53:22.436Z,85.8
2019-02-08T02:53:48.594Z,85.76
2019-02-08T02:54:15.711Z,85.71
2019-02-08T02:54:41.838Z,85.9
2019-02-08T02:55:07.951Z,85.9
2019-02-08T02:55:34.084Z,85.86
2019-02-08T02:56:00.190Z,85.86
2019-02-08T02:56:26.306Z,86.05
2019-02-08T02:56:52.428Z,85.57
2019-02-08T02:57:18.569Z,85.86
2019-02-08T02:57:44.675Z,85.9
2019-02-08T02:58:10.807Z,85.8
2019-02-08T02:58:36.912Z,85.71
2019-02-08T02:59:03.026Z,85.71
2019-02-08T02:59:29.155Z,85.9
2019-02-08T02:59:55.253Z,86.09
2019-02-08T03:00:21.481Z,86.09
2019-02-08T03:00:47.567Z,85.71
2019-02-08T03:01:13.712Z,85.24
2019-02-08T03:01:39.806Z,85.8
2019-02-08T03:02:05.910Z,85.9
2019-02-08T03:02:32.017Z,85.14
2019-02-08T03:02:59.174Z,85.9
2019-02-08T03:03:25.247Z,85.33
2019-02-08T03:03:51.355Z,85.9
2019-02-08T03:04:17.455Z,85.76
2019-02-08T03:04:43.565Z,85.33
2019-02-08T03:05:09.698Z,85.86
2019-02-08T03:05:35.803Z,85.9
2019-02-08T03:06:01.915Z,85.9
2019-02-08T03:06:28.052Z,85.42
2019-02-08T03:06:54.187Z,85.99
2019-02-08T03:07:20.290Z,85.52
2019-02-08T03:07:46.441Z,85.33
2019-02-08T03:08:12.534Z,85.47
2019-02-08T03:08:39.719Z,86.33
2019-02-08T03:09:05.763Z,85.47
2019-02-08T03:09:31.873Z,85.8
2019-02-08T03:09:58.047Z,86.09
2019-02-08T03:10:24.134Z,86.28
2019-02-08T03:10:50.274Z,86.18
2019-02-08T03:11:16.407Z,86.18
2019-02-08T03:11:42.542Z,85.95
2019-02-08T03:12:08.672Z,86.05
2019-02-08T03:12:34.779Z,85.99
2019-02-08T03:13:00.889Z,86.09
2019-02-08T03:13:27.023Z,85.99
2019-02-08T03:13:53.203Z,85.8
2019-02-08T03:14:19.262Z,86.38
2019-02-08T03:14:45.365Z,85.99
2019-02-08T03:15:11.481Z,86.24
2019-02-08T03:15:37.612Z,85.95
2019-02-08T03:16:03.715Z,86.33
2019-02-08T03:16:29.818Z,86.8
2019-02-08T03:16:55.928Z,86.61
2019-02-08T03:17:22.030Z,86.33
2019-02-08T03:17:48.140Z,86.9
2019-02-08T03:18:14.294Z,87.13
2019-02-08T03:18:40.403Z,87.28
2019-02-08T03:19:06.506Z,87.28
2019-02-08T03:19:32.612Z,87.28
2019-02-08T03:19:58.794Z,87.32
2019-02-08T03:20:24.879Z,87.38
2019-02-08T03:20:51.014Z,87.28
2019-02-08T03:21:17.149Z,86.99
2019-02-08T03:21:43.251Z,86.9
2019-02-08T03:22:09.359Z,87.09
2019-02-08T03:22:35.517Z,87.28
2019-02-08T03:23:01.626Z,87.38
2019-02-08T03:23:27.757Z,87.47
2019-02-08T03:23:53.896Z,87.09
2019-02-08T03:24:20.989Z,87.09
2019-02-08T03:24:47.110Z,87.28
2019-02-08T03:25:13.246Z,87.28
2019-02-08T03:25:39.356Z,87.19
2019-02-08T03:26:05.521Z,87.28
2019-02-08T03:26:31.622Z,87.95
2019-02-08T03:26:57.757Z,87.85
2019-02-08T03:27:23.861Z,88.04
2019-02-08T03:27:49.997Z,87.95
2019-02-08T03:28:16.101Z,87.76
2019-02-08T03:28:42.204Z,87.85
2019-02-08T03:29:08.313Z,87.76
2019-02-08T03:29:34.474Z,87.85
2019-02-08T03:30:00.582Z,87.85
2019-02-08T03:30:26.685Z,87.85
2019-02-08T03:30:52.869Z,87.9
2019-02-08T03:31:18.965Z,87.9
2019-02-08T03:31:45.106Z,87.85
2019-02-08T03:32:11.269Z,87.76
2019-02-08T03:32:37.460Z,87.76
2019-02-08T03:33:03.679Z,87.95
2019-02-08T03:33:29.787Z,87.52
2019-02-08T03:33:55.950Z,87.57
2019-02-08T03:34:22.086Z,87.66
2019-02-08T03:34:48.189Z,87.95
2019-02-08T03:35:14.312Z,87.9
2019-02-08T03:35:40.440Z,87.9
2019-02-08T03:36:06.579Z,87.9
2019-02-08T03:36:32.709Z,87.23
2019-02-08T03:36:58.877Z,87.13
2019-02-08T03:37:24.978Z,87.13
2019-02-08T03:37:51.087Z,87.42
2019-02-08T03:38:17.373Z,87.13
2019-02-08T03:38:43.511Z,87.95
2019-02-08T03:39:09.608Z,88.09
2019-02-08T03:39:35.741Z,87.99
2019-02-08T03:40:01.876Z,87.8
2019-02-08T03:40:27.974Z,87.9
2019-02-08T03:40:54.088Z,87.23
2019-02-08T03:41:20.198Z,87.19
2019-02-08T03:41:46.299Z,87.28
2019-02-08T03:42:12.426Z,87.85
2019-02-08T03:42:38.566Z,87.57
2019-02-08T03:43:04.688Z,87.32
2019-02-08T03:43:30.822Z,87.76
2019-02-08T03:43:56.956Z,87.47
2019-02-08T03:44:23.067Z,87.52
2019-02-08T03:44:49.170Z,87.47
2019-02-08T03:45:15.270Z,87.76
2019-02-08T03:45:41.380Z,87.57
2019-02-08T03:46:07.497Z,87.85
2019-02-08T03:46:33.629Z,87.57
2019-02-08T03:46:59.790Z,88.33
2019-02-08T03:47:25.907Z,88.13
2019-02-08T03:47:51.994Z,88.13
2019-02-08T03:48:18.099Z,88.23
2019-02-08T03:48:44.241Z,87.85
2019-02-08T03:49:10.349Z,88.28
2019-02-08T03:49:36.449Z,88.23
2019-02-08T03:50:02.579Z,88.04
2019-02-08T03:50:28.683Z,88.23
2019-02-08T03:50:54.824Z,88.23
2019-02-08T03:51:20.958Z,87.95
2019-02-08T03:51:47.063Z,88.23
2019-02-08T03:52:13.167Z,88.23
2019-02-08T03:52:39.273Z,87.85
2019-02-08T03:53:05.383Z,87.85
2019-02-08T03:53:31.510Z,87.76
2019-02-08T03:53:57.618Z,87.85
2019-02-08T03:54:24.747Z,88.42
2019-02-08T03:54:50.852Z,88.61
2019-02-08T03:55:16.987Z,88.23
2019-02-08T03:55:43.089Z,88.52
2019-02-08T03:56:09.503Z,88.52
2019-02-08T03:56:35.607Z,87.85
2019-02-08T03:57:01.713Z,87.95
2019-02-08T03:57:27.813Z,88.04
2019-02-08T03:57:53.980Z,87.76
2019-02-08T03:58:20.089Z,88.04
2019-02-08T03:58:46.225Z,88.23
2019-02-08T03:59:12.324Z,87.95
2019-02-08T03:59:38.430Z,87.85
2019-02-08T04:00:04.537Z,87.76
2019-02-08T04:00:30.656Z,87.85
2019-02-08T04:00:56.761Z,87.85
2019-02-08T04:01:22.891Z,88.23
2019-02-08T04:01:49.017Z,88.61
2019-02-08T04:02:15.658Z,88.33
2019-02-08T04:02:41.330Z,88.42
2019-02-08T04:03:07.468Z,88.52
2019-02-08T04:03:33.607Z,88.8
2019-02-08T04:03:59.733Z,88.61
2019-02-08T04:04:25.839Z,88.52
2019-02-08T04:04:51.945Z,88.33
2019-02-08T04:05:18.053Z,88.71
2019-02-08T04:05:44.160Z,88.61
2019-02-08T04:06:10.268Z,88.9
2019-02-08T04:06:36.376Z,88.9
2019-02-08T04:07:02.510Z,89
2019-02-08T04:07:28.642Z,88.42
2019-02-08T04:07:54.771Z,88.71
2019-02-08T04:08:20.902Z,88.61
2019-02-08T04:08:47.016Z,88.9
2019-02-08T04:09:13.122Z,88.61
2019-02-08T04:09:39.248Z,88.61
2019-02-08T04:10:05.378Z,88.8
2019-02-08T04:10:31.484Z,89
2019-02-08T04:10:57.594Z,89
2019-02-08T04:11:23.699Z,88.8
2019-02-08T04:11:49.840Z,88.8
2019-02-08T04:12:15.944Z,88.52
2019-02-08T04:12:42.092Z,88.42
2019-02-08T04:13:08.225Z,88.33
2019-02-08T04:13:34.328Z,88.52
2019-02-08T04:14:00.428Z,88.52
2019-02-08T04:14:26.567Z,88.23
2019-02-08T04:14:52.666Z,88.71
2019-02-08T04:15:18.777Z,89
2019-02-08T04:15:44.887Z,88.9
2019-02-08T04:16:10.997Z,88.61
2019-02-08T04:16:37.127Z,88.52
2019-02-08T04:17:03.227Z,88.71
2019-02-08T04:17:29.365Z,88.61
2019-02-08T04:17:55.474Z,88.61
2019-02-08T04:18:21.578Z,88.42
2019-02-08T04:18:47.835Z,88.52
2019-02-08T04:19:13.943Z,88.52
2019-02-08T04:19:40.113Z,88.33
2019-02-08T04:20:06.220Z,88.33
2019-02-08T04:20:32.328Z,88.52
2019-02-08T04:20:58.489Z,88.71
2019-02-08T04:21:24.604Z,88.71
2019-02-08T04:21:50.705Z,88.52
2019-02-08T04:22:16.824Z,88.52
2019-02-08T04:22:42.928Z,88.8
2019-02-08T04:23:09.029Z,88.61
2019-02-08T04:23:35.167Z,89
2019-02-08T04:24:01.266Z,88.9
2019-02-08T04:24:29.858Z,89.09
2019-02-08T04:24:55.518Z,88.71
2019-02-08T04:25:21.656Z,89
2019-02-08T04:25:47.797Z,88.61
2019-02-08T04:26:13.895Z,88.52
2019-02-08T04:26:40.487Z,88.9
2019-02-08T04:27:06.622Z,88.42
2019-02-08T04:27:32.778Z,89.09
2019-02-08T04:27:58.883Z,88.71
2019-02-08T04:28:24.989Z,88.8
2019-02-08T04:28:51.101Z,89
2019-02-08T04:29:17.242Z,89.18
2019-02-08T04:29:43.366Z,89
2019-02-08T04:30:09.496Z,89.18
2019-02-08T04:30:35.603Z,89.18
2019-02-08T04:31:01.704Z,89.09
2019-02-08T04:31:27.835Z,89.18
2019-02-08T04:31:53.946Z,88.9
2019-02-08T04:32:20.081Z,88.9
2019-02-08T04:32:46.181Z,89
2019-02-08T04:33:12.298Z,89.18
2019-02-08T04:33:38.426Z,89.18
2019-02-08T04:34:04.559Z,89.18
2019-02-08T04:34:30.674Z,89.09
2019-02-08T04:34:56.802Z,88.71
2019-02-08T04:35:22.975Z,89
2019-02-08T04:35:49.075Z,89.18
2019-02-08T04:36:15.181Z,88.8
2019-02-08T04:36:41.294Z,89.37
2019-02-08T04:37:07.398Z,89.09
2019-02-08T04:37:33.534Z,89.09
2019-02-08T04:37:59.660Z,88.9
2019-02-08T04:38:25.765Z,89.56
2019-02-08T04:38:51.869Z,89.56
2019-02-08T04:39:17.999Z,89.28
2019-02-08T04:39:44.106Z,89.94
2019-02-08T04:40:10.211Z,90.28
2019-02-08T04:40:36.351Z,90.04
2019-02-08T04:41:02.455Z,89.85
2019-02-08T04:41:28.564Z,90.04
2019-02-08T04:41:54.662Z,89.94
2019-02-08T04:42:20.770Z,89.66
2019-02-08T04:42:46.875Z,89.94
2019-02-08T04:43:12.986Z,90.14
2019-02-08T04:43:39.090Z,89.94
2019-02-08T04:44:05.201Z,90.23
2019-02-08T04:44:31.335Z,89.66
2019-02-08T04:44:57.472Z,90.14
2019-02-08T04:45:23.576Z,89.94
2019-02-08T04:45:49.718Z,90.04
2019-02-08T04:46:15.869Z,90.04
2019-02-08T04:46:41.975Z,89.66
2019-02-08T04:47:08.083Z,90.04
2019-02-08T04:47:34.188Z,89.94
2019-02-08T04:48:00.356Z,89.75
2019-02-08T04:48:26.494Z,89.94
2019-02-08T04:48:52.592Z,90.14
2019-02-08T04:49:18.698Z,90.33
2019-02-08T04:49:44.807Z,90.14
2019-02-08T04:50:10.947Z,90.04
2019-02-08T04:50:37.058Z,90.42
2019-02-08T04:51:03.166Z,90.33
2019-02-08T04:51:29.292Z,90.33
2019-02-08T04:51:55.400Z,90.14
2019-02-08T04:52:21.504Z,90.42
2019-02-08T04:52:47.612Z,90.7
2019-02-08T04:53:13.713Z,90.8
2019-02-08T04:53:39.846Z,90.42
2019-02-08T04:54:05.948Z,90.52
2019-02-08T04:54:38.069Z,90.8
2019-02-08T04:54:59.544Z,90.89
2019-02-08T04:55:25.660Z,90.99
2019-02-08T04:55:51.836Z,91.18
2019-02-08T04:56:17.951Z,90.89
2019-02-08T04:56:44.082Z,91.47
2019-02-08T04:57:10.188Z,91.47
2019-02-08T04:57:36.297Z,91.37
2019-02-08T04:58:02.425Z,91.56
2019-02-08T04:58:35.282Z,91.56
2019-02-08T04:58:56.641Z,92.03
2019-02-08T04:59:22.785Z,92.13
2019-02-08T04:59:48.903Z,91.56
2019-02-08T05:00:15.032Z,91.66
2019-02-08T05:00:41.129Z,90.99
2019-02-08T05:01:07.302Z,91.37
2019-02-08T05:01:33.407Z,91.66
2019-02-08T05:01:59.516Z,91.47
2019-02-08T05:02:25.623Z,91.37
2019-02-08T05:02:51.752Z,90.99
2019-02-08T05:03:17.883Z,91.28
2019-02-08T05:03:43.985Z,91.28
2019-02-08T05:04:10.121Z,91.47
2019-02-08T05:04:36.253Z,91.18
2019-02-08T05:05:02.390Z,90.8
2019-02-08T05:05:28.493Z,90.99
2019-02-08T05:05:54.629Z,90.99
2019-02-08T05:06:20.732Z,90.89
2019-02-08T05:06:46.844Z,90.89
2019-02-08T05:07:12.945Z,91.47
2019-02-08T05:07:39.057Z,91.28
2019-02-08T05:08:05.170Z,91.37
2019-02-08T05:08:31.260Z,91.28
2019-02-08T05:08:57.363Z,91.28
2019-02-08T05:09:23.472Z,91.66
2019-02-08T05:09:49.571Z,91.94
2019-02-08T05:10:15.678Z,92.22
2019-02-08T05:10:41.786Z,92.32
2019-02-08T05:11:07.892Z,92.51
2019-02-08T05:11:33.995Z,92.7
2019-02-08T05:12:00.113Z,92.41
2019-02-08T05:12:26.271Z,92.41
2019-02-08T05:12:52.398Z,92.61
2019-02-08T05:13:18.540Z,92.61
2019-02-08T05:13:44.647Z,92.89
2019-02-08T05:14:10.789Z,92.32
2019-02-08T05:14:36.922Z,92.41
2019-02-08T05:15:03.030Z,92.41
2019-02-08T05:15:29.128Z,92.41
2019-02-08T05:15:55.244Z,93.18
2019-02-08T05:16:21.390Z,92.51
2019-02-08T05:16:47.492Z,92.22
2019-02-08T05:17:13.593Z,92.89
2019-02-08T05:17:39.701Z,92.89
2019-02-08T05:18:05.860Z,92.51
2019-02-08T05:18:31.967Z,92.99
2019-02-08T05:18:58.107Z,92.61
2019-02-08T05:19:24.247Z,92.41
2019-02-08T05:19:50.350Z,92.22
2019-02-08T05:20:16.458Z,92.51
2019-02-08T05:20:42.600Z,92.51
2019-02-08T05:21:08.731Z,92.41
2019-02-08T05:21:34.869Z,92.51
2019-02-08T05:22:00.992Z,92.51
2019-02-08T05:22:27.119Z,92.51
2019-02-08T05:22:53.228Z,92.51
2019-02-08T05:23:19.328Z,92.41
2019-02-08T05:23:45.434Z,92.51
2019-02-08T05:24:11.539Z,92.32
2019-02-08T05:24:37.656Z,92.41
2019-02-08T05:25:03.808Z,92.7
2019-02-08T05:25:29.938Z,93.18
2019-02-08T05:25:56.031Z,92.89
2019-02-08T05:26:22.140Z,93.18
2019-02-08T05:26:48.284Z,94.03
2019-02-08T05:27:14.408Z,93.94
2019-02-08T05:27:40.525Z,93.84
2019-02-08T05:28:07.622Z,92.89
2019-02-08T05:28:33.758Z,93.08
2019-02-08T05:28:59.898Z,92.8
2019-02-08T05:29:26.010Z,92.65
2019-02-08T05:29:52.138Z,92.41
2019-02-08T05:30:18.241Z,92.13
2019-02-08T05:30:44.343Z,92.32
2019-02-08T05:31:10.452Z,92.41
2019-02-08T05:31:36.558Z,92.13
2019-02-08T05:32:02.658Z,92.41
2019-02-08T05:32:28.771Z,92.61
2019-02-08T05:32:54.878Z,92.32
2019-02-08T05:33:21.075Z,92.32
2019-02-08T05:33:47.183Z,92.41
2019-02-08T05:34:13.342Z,92.7
2019-02-08T05:34:39.446Z,92.41
2019-02-08T05:35:05.563Z,92.51
2019-02-08T05:35:31.696Z,92.51
2019-02-08T05:35:57.828Z,92.56
2019-02-08T05:36:23.968Z,92.46
2019-02-08T05:36:50.111Z,92.22
2019-02-08T05:37:16.182Z,92.32
2019-02-08T05:37:42.288Z,92.51
2019-02-08T05:38:08.413Z,92.89
2019-02-08T05:38:34.525Z,92.7